aviador You're here:

YTRE Decoded Metar

TAREE AIRPORT in _UNIDENTIFIED
Report Time2018-06-24 00:00:00
UTC Time2018-06-24 01:06:03
Flight Rules vfr VFR
Wind270° at 07 kt
W.Decomp.*RWY 22: 5.5 kt HW 4.3 kt RCW
W.Rank270° ranks 1
Current wind is above 270° avg. (5.8)
Visibility9999 m
Phenomena:N/A
Clouds:N/A
Expected CloudBase > 2,400 ft AGL from Temp-Dew spread
CeilingNone
Temp13°C (ISA -2)
Dew Point07°C (67% RH)
AAT9.8°C
QNH1026 hPa
Density Alt-492 ft
Elevation39 ft
Report Wrong Elevation
Raw Report
YTRE 240000Z AUTO 27007KT 9999 // NCD 13/07 Q1026=

Extra information for YTRE:More info

Metar Taf Metar & Taf Last 4 Metars F.Rules Stats Wind Profile Meteogram Temp Stats Airport Information Weather charts Add Link Nearby VenuesMetar ALERT Operation Metar Decoded Social comments